Time;durP1;ratioP1;P1;durP2;ratioP2;P2;SDS_P1;SDS_P2;PMS_P1;PMS_P2;Temp;Humidity;BMP_temperature;BMP_pressure;BME280_temperature;BME280_humidity;BME280_pressure;Samples;Min_cycle;Max_cycle;Signal;HPM_P1;HPM_P2
2022/08/21 00:00:25;;;;;;;8.85;3.78;;;;;;;22.51;74.19;99860.88;18493992;32;20369;-56
2022/08/21 00:10:28;;;;;;;8.10;3.60;;;;;;;23.04;71.92;99868.28;18529502;32;20085;-56
2022/08/21 00:20:34;;;;;;;10.77;3.67;;;;;;;22.85;72.43;99864.97;18525574;32;20539;-55
2022/08/21 00:30:37;;;;;;;10.60;3.85;;;;;;;22.85;72.06;99850.81;18536890;32;20174;-55
2022/08/21 00:40:46;;;;;;;8.45;4.22;;;;;;;22.81;71.87;99849.28;18489680;32;20120;-54
2022/08/21 00:50:54;;;;;;;8.55;3.25;;;;;;;23.02;71.34;99847.09;18542869;32;20457;-55
2022/08/21 01:01:01;;;;;;;10.00;3.90;;;;;;;22.98;71.34;99848.25;18545552;32;20102;-55
2022/08/21 01:11:10;;;;;;;7.28;3.62;;;;;;;22.94;71.35;99844.91;18499741;32;20081;-55
2022/08/21 01:21:18;;;;;;;7.82;3.40;;;;;;;23.03;70.74;99837.31;18499270;32;20154;-55
2022/08/21 01:31:23;;;;;;;10.43;4.15;;;;;;;22.96;70.64;99840.34;18499375;32;20147;-55
2022/08/21 01:41:29;;;;;;;9.20;3.95;;;;;;;22.75;70.92;99837.22;18499303;32;20112;-55
2022/08/21 01:51:33;;;;;;;8.65;3.80;;;;;;;22.54;71.19;99837.59;18499650;32;20111;-54
2022/08/21 02:01:39;;;;;;;9.05;4.00;;;;;;;22.48;71.15;99840.63;18498080;32;20108;-55
2022/08/21 02:11:42;;;;;;;8.90;3.40;;;;;;;22.41;71.33;99832.16;18498193;32;20444;-54
2022/08/21 02:21:47;;;;;;;9.10;3.53;;;;;;;22.35;71.34;99834.34;18497500;32;20118;-55
2022/08/21 02:31:50;;;;;;;9.57;4.10;;;;;;;22.35;71.08;99842.31;18497499;32;20088;-55
2022/08/21 02:41:55;;;;;;;9.00;3.70;;;;;;;22.24;71.23;99830.53;18497041;32;20093;-56
2022/08/21 02:51:59;;;;;;;7.53;3.53;;;;;;;22.09;71.19;99826.97;18497859;32;20176;-57
2022/08/21 03:02:03;;;;;;;9.52;3.55;;;;;;;22.13;70.72;99828.50;18496506;32;20211;-57
2022/08/21 03:12:07;;;;;;;7.87;3.62;;;;;;;21.85;71.29;99829.28;18496362;32;20115;-54
2022/08/21 03:22:12;;;;;;;9.57;4.00;;;;;;;21.82;71.36;99826.81;18495484;32;20441;-54
2022/08/21 03:32:15;;;;;;;8.77;4.25;;;;;;;21.78;71.59;99822.62;18495083;32;20136;-55
2022/08/21 03:42:20;;;;;;;8.73;3.92;;;;;;;21.78;71.51;99833.25;18494935;32;20092;-54
2022/08/21 03:52:23;;;;;;;8.52;4.03;;;;;;;21.82;71.90;99835.63;18494019;32;20343;-54
2022/08/21 04:02:28;;;;;;;8.65;4.28;;;;;;;21.89;71.68;99833.47;18493283;32;20100;-55
2022/08/21 04:12:31;;;;;;;9.40;4.37;;;;;;;21.81;72.24;99839.25;18493094;32;20119;-54
2022/08/21 04:22:36;;;;;;;8.73;4.05;;;;;;;21.84;72.20;99852.34;18491554;32;20101;-54
2022/08/21 04:32:39;;;;;;;12.57;4.62;;;;;;;21.94;72.41;99854.44;18500866;32;20111;-55
2022/08/21 04:42:49;;;;;;;10.18;4.10;;;;;;;21.87;73.31;99864.59;18500634;32;20093;-54
2022/08/21 04:52:52;;;;;;;10.27;4.35;;;;;;;21.97;73.32;99876.38;18500162;32;20138;-55
2022/08/21 05:02:58;;;;;;;9.27;4.35;;;;;;;22.09;73.29;99880.13;18508385;32;20111;-55
2022/08/21 05:13:05;;;;;;;8.95;4.35;;;;;;;22.42;72.32;99886.19;18499872;32;20101;-54
2022/08/21 05:23:11;;;;;;;9.52;4.00;;;;;;;22.20;73.90;99891.94;18520381;32;20115;-55
2022/08/21 05:33:14;;;;;;;10.77;4.82;;;;;;;22.68;72.10;99892.63;18562942;32;20100;-54
2022/08/21 05:43:18;;;;;;;9.75;4.78;;;;;;;22.90;71.25;99891.28;18562914;32;20110;-54
2022/08/21 05:53:23;;;;;;;11.02;4.87;;;;;;;22.97;70.89;99892.63;18563451;32;20165;-54
2022/08/21 06:03:31;;;;;;;10.73;5.55;;;;;;;23.00;70.27;99897.78;18563254;32;20099;-55
2022/08/21 06:13:34;;;;;;;9.93;4.82;;;;;;;22.96;70.41;99906.03;18564059;32;20092;-54
2022/08/21 06:23:39;;;;;;;10.52;5.00;;;;;;;22.98;69.78;99898.81;18562228;32;20087;-54
2022/08/21 06:33:42;;;;;;;10.20;4.30;;;;;;;23.20;69.46;99895.66;18560824;32;20093;-55
2022/08/21 06:43:47;;;;;;;12.35;4.82;;;;;;;23.44;68.01;99889.72;18560661;32;20377;-54
2022/08/21 06:53:50;;;;;;;9.45;3.97;;;;;;;23.56;67.95;99891.59;18561434;32;20092;-56
2022/08/21 07:03:55;;;;;;;9.50;3.90;;;;;;;23.17;68.79;99902.97;18561380;32;20142;-54
2022/08/21 07:13:58;;;;;;;9.80;3.85;;;;;;;23.72;66.47;99898.59;18556196;32;149007;-54
2022/08/21 07:24:03;;;;;;;8.90;4.00;;;;;;;24.45;65.35;99900.94;18561357;32;20096;-55
2022/08/21 07:34:08;;;;;;;9.43;4.12;;;;;;;24.58;65.05;99900.94;18557148;32;20122;-55
2022/08/21 07:44:13;;;;;;;8.15;3.72;;;;;;;24.82;62.89;99898.41;18555993;31;20096;-55
2022/08/21 07:54:16;;;;;;;8.68;3.53;;;;;;;24.19;63.61;99901.75;18510259;32;20093;-55
2022/08/21 08:04:30;;;;;;;7.93;3.47;;;;;;;24.87;62.91;99887.41;18513396;32;20112;-54
2022/08/21 08:14:33;;;;;;;7.47;2.97;;;;;;;24.84;62.86;99876.94;18566568;32;20136;-55
2022/08/21 08:24:40;;;;;;;9.85;4.60;;;;;;;25.64;59.55;99870.34;18565794;31;20112;-56
2022/08/21 08:34:44;;;;;;;7.43;3.10;;;;;;;24.18;63.87;99862.69;18566143;32;20107;-55
2022/08/21 08:44:49;;;;;;;8.35;3.67;;;;;;;25.97;59.48;99849.19;18564727;31;20107;-55
2022/08/21 08:54:59;;;;;;;8.57;3.72;;;;;;;26.65;56.97;99852.03;18564776;32;20072;-55
2022/08/21 09:05:04;;;;;;;8.00;3.57;;;;;;;26.65;57.63;99857.38;18564904;32;20089;-55
2022/08/21 09:15:23;;;;;;;8.88;3.45;;;;;;;26.47;56.54;99850.81;18563859;32;20092;-55
2022/08/21 09:25:30;;;;;;;8.43;4.20;;;;;;;26.37;57.35;99848.00;18562830;32;20102;-55
2022/08/21 09:35:36;;;;;;;8.30;3.40;;;;;;;26.40;57.00;99848.63;18560718;32;20083;-56
2022/08/21 09:45:43;;;;;;;8.77;3.70;;;;;;;26.46;56.94;99863.34;18560899;31;20208;-55
2022/08/21 10:06:26;;;;;;;8.00;3.70;;;;;;;25.09;60.45;99854.72;18562512;32;20114;-55
2022/08/21 10:16:38;;;;;;;10.07;4.47;;;;;;;24.33;63.48;99876.81;18554050;32;20095;-55
2022/08/21 10:26:50;;;;;;;8.65;3.62;;;;;;;24.96;61.38;99867.22;18561815;32;20092;-55
2022/08/21 10:37:02;;;;;;;6.90;3.42;;;;;;;25.48;60.26;99875.94;18562430;32;20111;-55
2022/08/21 10:47:17;;;;;;;7.65;3.62;;;;;;;25.90;59.73;99872.88;18562043;32;20132;-55
2022/08/21 10:57:25;;;;;;;7.53;3.15;;;;;;;27.03;56.21;99862.50;18560488;32;20444;-55
2022/08/21 11:07:38;;;;;;;7.75;3.35;;;;;;;27.72;53.12;99850.69;18524322;32;20094;-55
2022/08/21 11:17:55;;;;;;;7.87;3.40;;;;;;;27.64;51.90;99843.28;18498334;32;20105;-56
2022/08/21 11:28:03;;;;;;;6.87;3.28;;;;;;;27.62;53.85;99834.50;18495143;32;20421;-55
2022/08/21 11:38:16;;;;;;;8.65;2.97;;;;;;;27.92;53.04;99834.75;18492927;32;20119;-55
2022/08/21 11:48:33;;;;;;;7.57;3.30;;;;;;;28.09;51.92;99823.44;18494707;32;20080;-55
2022/08/21 11:58:39;;;;;;;8.02;3.45;;;;;;;26.32;56.55;99840.31;18493996;32;20669;-55
2022/08/21 12:08:45;;;;;;;8.95;3.60;;;;;;;25.78;58.66;99831.88;18504870;32;20100;-55
2022/08/21 12:18:48;;;;;;;7.97;3.78;;;;;;;26.12;58.36;99826.66;18555666;32;20153;-56
2022/08/21 12:29:09;;;;;;;8.68;3.60;;;;;;;26.02;57.95;99817.63;18556601;32;20377;-55
2022/08/21 12:39:14;;;;;;;9.63;3.87;;;;;;;25.69;58.49;99811.19;18555821;32;20081;-55
2022/08/21 12:49:23;;;;;;;6.97;2.97;;;;;;;25.82;61.32;99805.78;18559917;32;20076;-55
2022/08/21 12:59:30;;;;;;;6.45;2.95;;;;;;;26.62;59.30;99796.06;18563383;32;20107;-55
2022/08/21 13:09:34;;;;;;;8.95;3.70;;;;;;;26.23;58.32;99788.41;18552149;32;20101;-56
2022/08/21 13:19:38;;;;;;;7.40;3.15;;;;;;;26.49;56.93;99776.62;18561876;32;20143;-55
2022/08/21 13:29:47;;;;;;;6.32;3.00;;;;;;;27.16;54.85;99761.44;18556137;32;20100;-56
2022/08/21 13:39:59;;;;;;;7.12;2.83;;;;;;;27.50;52.48;99753.25;18557848;32;20088;-56
2022/08/21 13:50:05;;;;;;;6.20;3.08;;;;;;;27.59;52.76;99748.13;18563162;31;20120;-55
2022/08/21 14:00:16;;;;;;;8.55;3.00;;;;;;;27.40;53.97;99728.22;18562105;32;20099;-55
2022/08/21 14:10:23;;;;;;;8.05;3.22;;;;;;;27.52;54.48;99732.56;18560423;32;20100;-55
2022/08/21 14:20:31;;;;;;;6.87;2.42;;;;;;;27.49;53.81;99737.34;18560753;32;20100;-56
2022/08/21 14:30:38;;;;;;;5.40;2.33;;;;;;;27.32;54.35;99738.72;18562559;32;20104;-56
2022/08/21 14:40:43;;;;;;;4.60;2.05;;;;;;;27.25;54.34;99733.91;18562153;32;20084;-56
2022/08/21 14:50:48;;;;;;;4.07;2.25;;;;;;;27.25;53.94;99736.56;18560178;32;20091;-56
2022/08/21 15:00:56;;;;;;;4.72;2.17;;;;;;;27.11;54.96;99739.53;18561265;32;20092;-56
2022/08/21 15:11:01;;;;;;;3.83;2.05;;;;;;;27.26;54.60;99732.06;18560015;32;20137;-56
2022/08/21 15:21:24;;;;;;;5.57;1.83;;;;;;;27.18;55.42;99724.66;18558742;32;20123;-56
2022/08/21 15:31:31;;;;;;;6.47;1.42;;;;;;;27.12;54.86;99738.56;18554888;32;20487;-56
2022/08/21 15:41:35;;;;;;;3.92;1.48;;;;;;;26.86;55.13;99728.16;18554251;32;20096;-56
2022/08/21 15:51:39;;;;;;;4.60;1.62;;;;;;;26.53;58.06;99748.63;18555690;31;20103;-56
2022/08/21 16:01:46;;;;;;;4.90;2.62;;;;;;;25.97;61.81;99748.47;18554485;32;20100;-56
2022/08/21 16:11:51;;;;;;;6.00;2.10;;;;;;;25.29;65.41;99770.44;18553026;32;20141;-55
2022/08/21 16:21:54;;;;;;;6.93;2.92;;;;;;;25.00;66.94;99773.44;18550392;31;20100;-57
2022/08/21 16:32:01;;;;;;;5.95;1.87;;;;;;;24.87;67.54;99770.81;18560216;32;20139;-56
2022/08/21 16:42:05;;;;;;;4.75;2.20;;;;;;;24.58;68.99;99779.06;18559683;32;20084;-56
2022/08/21 16:52:10;;;;;;;7.20;2.65;;;;;;;24.27;69.87;99775.03;18561794;31;20107;-56
2022/08/21 17:02:19;;;;;;;4.60;2.20;;;;;;;24.25;70.35;99765.31;18561523;32;20101;-56
2022/08/21 17:12:24;;;;;;;4.15;2.17;;;;;;;24.29;70.87;99751.81;18559651;32;20099;-56
2022/08/21 17:22:27;;;;;;;6.47;2.45;;;;;;;24.22;71.38;99754.03;18560156;32;20545;-56
2022/08/21 17:32:32;;;;;;;3.70;1.37;;;;;;;24.19;70.89;99752.44;18560079;32;20193;-56
2022/08/21 17:42:36;;;;;;;3.90;1.67;;;;;;;24.16;70.27;99757.97;18548550;32;20153;-56
2022/08/21 17:52:43;;;;;;;6.87;1.80;;;;;;;23.90;70.37;99763.28;18551400;32;20111;-57
2022/08/21 18:02:59;;;;;;;4.35;1.80;;;;;;;23.79;70.85;99760.47;18559177;32;20133;-56
2022/08/21 18:13:06;;;;;;;5.10;1.95;;;;;;;23.76;71.37;99758.03;18559498;32;20409;-56
2022/08/21 18:23:11;;;;;;;5.03;1.95;;;;;;;23.77;71.22;99760.59;18558756;32;20373;-56
2022/08/21 18:33:18;;;;;;;6.55;1.98;;;;;;;23.77;70.83;99773.06;18560337;32;20111;-56
2022/08/21 18:43:41;;;;;;;5.85;2.33;;;;;;;23.63;71.47;99769.53;18559899;32;20104;-56
2022/08/21 18:53:47;;;;;;;6.72;2.08;;;;;;;23.70;71.13;99769.94;18556614;32;20118;-56
2022/08/21 19:03:55;;;;;;;5.45;2.08;;;;;;;23.57;71.30;99769.91;18506052;32;20111;-56
2022/08/21 19:14:01;;;;;;;7.53;2.42;;;;;;;23.52;71.38;99774.69;18516508;32;20375;-56
2022/08/21 19:24:06;;;;;;;7.07;2.55;;;;;;;23.31;72.34;99777.81;18557116;32;20735;-57
2022/08/21 19:34:25;;;;;;;7.07;2.53;;;;;;;23.36;72.46;99769.53;18544596;32;20128;-57
2022/08/21 19:44:29;;;;;;;7.82;2.42;;;;;;;23.52;72.05;99761.38;18553825;32;20103;-56
2022/08/21 19:54:34;;;;;;;6.50;2.80;;;;;;;23.65;71.78;99742.75;18553973;32;20379;-56
2022/08/21 20:04:38;;;;;;;5.00;2.45;;;;;;;23.66;71.56;99749.78;18559373;32;20437;-56
2022/08/21 20:14:57;;;;;;;6.30;2.50;;;;;;;23.47;72.06;99740.38;18561805;32;20120;-56
2022/08/21 20:25:00;;;;;;;8.73;2.80;;;;;;;23.47;72.17;99736.88;18562923;32;20092;-56
2022/08/21 20:35:06;;;;;;;5.32;2.33;;;;;;;23.54;71.85;99735.50;18557972;32;20096;-56
2022/08/21 20:45:19;;;;;;;6.85;2.70;;;;;;;23.56;72.04;99729.09;18548745;32;20115;-56
2022/08/21 20:55:25;;;;;;;6.05;2.70;;;;;;;23.65;71.77;99730.31;18544830;32;20104;-56
2022/08/21 21:05:33;;;;;;;4.82;2.50;;;;;;;23.59;71.76;99720.06;18556811;32;20092;-56
2022/08/21 21:15:39;;;;;;;7.95;2.95;;;;;;;23.63;71.55;99718.91;18550329;32;20115;-56
2022/08/21 21:25:48;;;;;;;9.32;3.25;;;;;;;23.61;71.76;99710.13;18549221;32;20100;-56
2022/08/21 21:36:04;;;;;;;8.85;3.00;;;;;;;23.63;71.73;99710.91;18557173;32;20123;-56
2022/08/21 21:46:18;;;;;;;8.13;3.22;;;;;;;23.60;72.09;99713.75;18558411;32;20084;-56
2022/08/21 21:56:27;;;;;;;8.38;3.00;;;;;;;23.67;71.55;99708.91;18558448;32;20163;-56
2022/08/21 22:06:37;;;;;;;8.05;3.17;;;;;;;23.68;71.54;99716.75;18554776;32;20106;-56
2022/08/21 22:16:45;;;;;;;5.95;2.67;;;;;;;23.59;71.98;99705.91;18549005;32;20120;-56
2022/08/21 22:26:49;;;;;;;6.40;2.87;;;;;;;23.57;71.71;99700.66;18560794;32;20373;-56
2022/08/21 22:36:59;;;;;;;7.80;2.25;;;;;;;23.30;73.12;99719.37;18559240;32;20161;-57
2022/08/21 22:47:03;;;;;;;4.68;2.30;;;;;;;23.26;72.41;99705.38;18508263;32;20120;-56
2022/08/21 22:57:22;;;;;;;5.55;2.40;;;;;;;23.02;73.68;99692.72;18493871;32;20112;-56
2022/08/21 23:07:36;;;;;;;5.05;2.50;;;;;;;23.29;72.44;99686.56;18493351;32;20117;-56
2022/08/21 23:17:52;;;;;;;5.37;2.17;;;;;;;23.41;72.12;99682.22;18493916;32;20126;-56
2022/08/21 23:28:03;;;;;;;5.65;2.47;;;;;;;23.02;73.50;99682.06;18492199;32;20482;-56
2022/08/21 23:38:16;;;;;;;5.40;2.30;;;;;;;21.64;80.53;99688.81;18491547;32;20103;-57
2022/08/21 23:48:27;;;;;;;4.72;2.03;;;;;;;21.80;79.64;99679.94;18491476;32;20111;-57
2022/08/21 23:58:40;;;;;;;4.53;1.90;;;;;;;22.56;75.34;99681.44;18492106;32;20107;-57
